createdAt,value
2022-12-16T00:01:36.676Z,82.64
2022-12-16T00:04:40.453Z,83.37
2022-12-16T00:07:44.267Z,82.95
2022-12-16T00:10:57.065Z,82.62
2022-12-16T00:14:02.630Z,82.67
2022-12-16T00:17:06.498Z,82.52
2022-12-16T00:20:11.355Z,82.61
2022-12-16T00:23:15.859Z,83.49
2022-12-16T00:26:19.553Z,83.05
2022-12-16T00:29:25.370Z,83.79
2022-12-16T00:32:29.140Z,87.64
2022-12-16T00:35:33.376Z,87.46
2022-12-16T00:38:37.189Z,85.64
2022-12-16T00:41:40.999Z,85.54
2022-12-16T00:44:46.155Z,84.81
2022-12-16T00:47:51.806Z,84.79
2022-12-16T00:50:56.581Z,83.96
2022-12-16T00:54:00.330Z,84.17
2022-12-16T00:57:04.758Z,83.92
2022-12-16T01:00:13.216Z,84.04
2022-12-16T01:03:21.542Z,83.80
2022-12-16T01:06:25.905Z,84.35
2022-12-16T01:09:30.145Z,84.26
2022-12-16T01:12:34.206Z,84.49
2022-12-16T01:15:40.856Z,83.75
2022-12-16T01:18:44.658Z,83.31
2022-12-16T01:21:48.466Z,83.55
2022-12-16T01:24:52.354Z,83.69
2022-12-16T01:27:56.178Z,84.97
2022-12-16T01:31:02.990Z,84.13
2022-12-16T01:34:06.569Z,83.43
2022-12-16T01:37:12.938Z,82.64
2022-12-16T01:40:20.350Z,82.57
2022-12-16T01:43:29.993Z,82.22
2022-12-16T01:46:38.838Z,83.08
2022-12-16T01:49:45.858Z,82.78
2022-12-16T01:52:54.636Z,83.01
2022-12-16T01:56:00.336Z,83.83
2022-12-16T01:59:04.575Z,83.19
2022-12-16T02:02:10.876Z,83.21
2022-12-16T02:05:22.985Z,84.24
2022-12-16T02:08:26.676Z,84.25
2022-12-16T02:12:17.736Z,84.70
2022-12-16T02:15:36.948Z,84.39
2022-12-16T02:18:52.710Z,83.62
2022-12-16T02:22:09.256Z,83.90
2022-12-16T02:25:46.245Z,83.67
2022-12-16T02:29:11.780Z,82.77
2022-12-16T02:32:28.174Z,82.69
2022-12-16T02:35:41.060Z,83.36
2022-12-16T02:38:56.084Z,82.79
2022-12-16T02:42:08.449Z,83.49
2022-12-16T02:45:16.629Z,82.97
2022-12-16T02:48:21.742Z,82.88
2022-12-16T02:51:27.756Z,82.49
2022-12-16T02:54:31.717Z,82.86
2022-12-16T02:57:59.598Z,83.51
2022-12-16T03:01:11.205Z,84.35
2022-12-16T03:04:20.971Z,83.68
2022-12-16T03:07:28.369Z,85.52
2022-12-16T03:10:36.789Z,84.59
2022-12-16T03:13:44.581Z,84.09
2022-12-16T03:16:49.542Z,84.44
2022-12-16T03:20:03.027Z,84.68
2022-12-16T03:23:11.695Z,84.16
2022-12-16T03:26:20.477Z,85.27
2022-12-16T03:29:29.316Z,84.88
2022-12-16T03:32:39.355Z,85.43
2022-12-16T03:35:50.489Z,84.66
2022-12-16T03:38:57.491Z,83.99
2022-12-16T03:42:04.265Z,83.68
2022-12-16T03:45:12.729Z,84.97
2022-12-16T03:48:19.087Z,84.19
2022-12-16T03:51:24.610Z,83.96
2022-12-16T03:54:28.609Z,85.11
2022-12-16T03:57:32.576Z,86.53
2022-12-16T04:00:36.349Z,86.58
2022-12-16T04:03:40.315Z,85.36
2022-12-16T04:06:45.746Z,85.96
2022-12-16T04:09:50.341Z,84.41
2022-12-16T04:13:11.329Z,84.10
2022-12-16T04:16:34.748Z,88.91
2022-12-16T04:19:57.049Z,86.13
2022-12-16T04:23:19.931Z,85.22
2022-12-16T04:26:24.410Z,85.08
2022-12-16T04:29:28.316Z,85.15
2022-12-16T04:32:53.674Z,85.75
2022-12-16T04:36:26.566Z,85.92
2022-12-16T04:39:49.028Z,85.01
2022-12-16T04:43:10.007Z,84.66
2022-12-16T04:46:27.433Z,85.30
2022-12-16T04:49:48.509Z,85.99
2022-12-16T04:53:09.955Z,84.95
2022-12-16T04:56:32.317Z,86.70
2022-12-16T04:59:53.285Z,85.54
2022-12-16T05:03:15.294Z,86.50
2022-12-16T05:06:36.830Z,85.13
2022-12-16T05:09:58.051Z,85.75
2022-12-16T05:13:20.828Z,88.77
2022-12-16T05:16:42.038Z,89.90
2022-12-16T05:20:03.397Z,89.83
2022-12-16T05:23:24.665Z,90.11
2022-12-16T05:26:45.506Z,92.31
2022-12-16T05:30:07.815Z,90.05
2022-12-16T05:33:29.050Z,88.41
2022-12-16T05:36:49.949Z,88.60
2022-12-16T05:40:10.989Z,87.65
2022-12-16T05:43:32.277Z,87.37
2022-12-16T05:47:10.097Z,86.63
2022-12-16T05:50:31.724Z,86.76
2022-12-16T05:54:01.492Z,86.56
2022-12-16T05:57:22.711Z,87.58
2022-12-16T06:00:44.018Z,86.83
2022-12-16T06:04:06.824Z,87.30
2022-12-16T06:07:36.358Z,86.37
2022-12-16T06:10:57.389Z,86.40
2022-12-16T06:14:18.404Z,86.18
2022-12-16T06:17:41.067Z,85.93
2022-12-16T06:21:04.027Z,85.58
2022-12-16T06:24:25.607Z,86.40
2022-12-16T06:27:47.017Z,85.72
2022-12-16T06:31:08.197Z,85.33
2022-12-16T06:34:29.368Z,85.82
2022-12-16T06:37:51.737Z,88.07
2022-12-16T06:41:12.804Z,88.45
2022-12-16T06:44:33.918Z,89.20
2022-12-16T06:47:54.989Z,88.19
2022-12-16T06:51:16.048Z,86.91
2022-12-16T06:54:38.659Z,87.47
2022-12-16T06:57:59.808Z,87.09
2022-12-16T07:01:21.038Z,85.98
2022-12-16T07:04:42.374Z,88.48
2022-12-16T07:08:06.915Z,86.25
2022-12-16T07:11:29.146Z,87.06
2022-12-16T07:14:50.388Z,87.12
2022-12-16T07:18:11.546Z,86.75
2022-12-16T07:21:32.583Z,87.02
2022-12-16T07:24:53.540Z,87.06
2022-12-16T07:28:16.206Z,87.54
2022-12-16T07:31:37.368Z,87.65
2022-12-16T07:34:58.629Z,88.58
2022-12-16T07:38:19.559Z,88.52
2022-12-16T07:41:41.043Z,86.50
2022-12-16T07:45:03.786Z,87.23
2022-12-16T07:48:25.230Z,86.19
2022-12-16T07:51:46.219Z,86.50
2022-12-16T07:55:07.129Z,87.46
2022-12-16T07:58:29.856Z,86.71
2022-12-16T08:01:52.715Z,87.21
2022-12-16T08:05:16.185Z,87.75
2022-12-16T08:08:37.324Z,88.53
2022-12-16T08:11:58.536Z,88.07
2022-12-16T08:15:19.579Z,87.16
2022-12-16T08:18:41.889Z,88.36
2022-12-16T08:22:03.196Z,87.54
2022-12-16T08:25:24.285Z,88.99
2022-12-16T08:28:45.656Z,87.31
2022-12-16T08:32:06.920Z,87.51
2022-12-16T08:35:29.676Z,89.08
2022-12-16T08:38:50.780Z,90.23
2022-12-16T08:42:12.062Z,88.64
2022-12-16T08:45:33.057Z,87.38
2022-12-16T08:48:54.277Z,86.22
2022-12-16T08:52:18.652Z,86.06
2022-12-16T08:55:39.755Z,85.91
2022-12-16T08:59:00.869Z,84.53
2022-12-16T09:02:22.204Z,85.00
2022-12-16T09:05:43.570Z,85.02
2022-12-16T09:09:06.211Z,84.11
2022-12-16T09:12:26.870Z,87.35
2022-12-16T09:15:48.206Z,85.61
2022-12-16T09:19:17.675Z,85.90
2022-12-16T09:22:38.367Z,84.14
2022-12-16T09:26:01.091Z,83.66
2022-12-16T09:29:22.338Z,84.61
2022-12-16T09:32:43.372Z,83.69
2022-12-16T09:36:04.707Z,83.10
2022-12-16T09:39:26.177Z,83.42
2022-12-16T09:43:00.476Z,82.84
2022-12-16T09:46:27.817Z,82.85
2022-12-16T09:50:02.697Z,83.44
2022-12-16T09:53:29.489Z,83.34
2022-12-16T09:56:55.225Z,83.13
2022-12-16T10:00:21.267Z,83.31
2022-12-16T10:03:46.361Z,84.60
2022-12-16T10:07:15.931Z,84.38
2022-12-16T10:10:45.999Z,83.02
2022-12-16T10:14:19.632Z,82.94
2022-12-16T10:17:44.705Z,82.66
2022-12-16T10:21:10.270Z,82.59
2022-12-16T10:24:44.475Z,82.68
2022-12-16T10:28:07.037Z,84.25
2022-12-16T10:31:34.243Z,84.36
2022-12-16T10:34:59.050Z,83.97
2022-12-16T10:38:21.429Z,83.40
2022-12-16T10:41:45.638Z,84.93
2022-12-16T10:45:11.290Z,84.26
2022-12-16T10:48:33.704Z,84.55
2022-12-16T10:51:55.287Z,84.91
2022-12-16T10:55:25.676Z,84.97
2022-12-16T10:58:55.871Z,86.31
2022-12-16T11:02:18.887Z,85.85
2022-12-16T11:05:48.166Z,85.65
2022-12-16T11:09:10.836Z,87.14
2022-12-16T11:12:43.600Z,85.93
2022-12-16T11:16:04.911Z,86.37
2022-12-16T11:19:44.210Z,88.86
2022-12-16T11:23:04.919Z,87.82
2022-12-16T11:26:36.353Z,87.45
2022-12-16T11:30:12.246Z,88.40
2022-12-16T11:33:39.850Z,87.71
2022-12-16T11:37:02.690Z,87.32
2022-12-16T11:40:25.739Z,90.06
2022-12-16T11:43:51.775Z,92.37
2022-12-16T11:47:13.387Z,91.72
2022-12-16T11:50:44.536Z,89.74
2022-12-16T11:54:11.128Z,91.50
2022-12-16T11:57:39.697Z,89.56
2022-12-16T12:01:13.419Z,88.28
2022-12-16T12:04:35.117Z,88.80
2022-12-16T12:08:07.423Z,88.36
2022-12-16T12:11:37.999Z,88.45
2022-12-16T12:15:07.250Z,88.09
2022-12-16T12:18:40.444Z,87.38
2022-12-16T12:22:09.292Z,89.18
2022-12-16T12:25:40.638Z,89.43
2022-12-16T12:29:10.835Z,90.09
2022-12-16T12:32:44.289Z,89.06
2022-12-16T12:36:16.316Z,88.67
2022-12-16T12:39:43.160Z,88.73
2022-12-16T12:43:08.416Z,88.77
2022-12-16T12:46:35.963Z,89.34
2022-12-16T12:50:05.277Z,88.63
2022-12-16T12:53:42.449Z,88.72
2022-12-16T12:57:08.311Z,88.19
2022-12-16T13:00:36.245Z,88.61
2022-12-16T13:04:01.765Z,89.50
2022-12-16T13:07:23.541Z,90.59
2022-12-16T13:10:55.356Z,89.53
2022-12-16T13:14:16.297Z,90.73
2022-12-16T13:17:38.301Z,89.70
2022-12-16T13:20:59.495Z,90.39
2022-12-16T13:24:36.245Z,89.45
2022-12-16T13:28:15.475Z,89.25
2022-12-16T13:31:37.009Z,89.39
2022-12-16T13:34:58.159Z,90.14
2022-12-16T13:38:21.559Z,91.45
2022-12-16T13:42:08.929Z,91.74
2022-12-16T13:45:49.238Z,91.71
2022-12-16T13:49:10.448Z,91.95
2022-12-16T13:52:35.668Z,93.42
2022-12-16T13:56:01.258Z,93.54
2022-12-16T13:59:30.439Z,92.84
2022-12-16T14:03:07.926Z,94.18
2022-12-16T14:06:34.216Z,95.37
2022-12-16T14:09:57.129Z,94.46
2022-12-16T14:13:39.619Z,94.66
2022-12-16T14:17:09.974Z,93.87
2022-12-16T14:20:40.058Z,94.14
2022-12-16T14:24:05.241Z,95.89
2022-12-16T14:27:33.086Z,95.29
2022-12-16T14:30:55.079Z,98.20
2022-12-16T14:34:16.190Z,98.82
2022-12-16T14:37:41.063Z,97.73
2022-12-16T14:41:08.949Z,96.48
2022-12-16T14:44:37.375Z,97.23
2022-12-16T14:47:59.056Z,95.64
2022-12-16T14:51:35.266Z,94.92
2022-12-16T14:55:01.049Z,94.37
2022-12-16T14:58:24.941Z,95.37
2022-12-16T15:01:46.135Z,94.08
2022-12-16T15:05:07.755Z,94.97
2022-12-16T15:08:31.210Z,95.53
2022-12-16T15:11:55.698Z,95.53
2022-12-16T15:15:17.209Z,94.13
2022-12-16T15:18:41.327Z,94.12
2022-12-16T15:22:02.821Z,93.80
2022-12-16T15:25:24.876Z,95.03
2022-12-16T15:28:58.481Z,94.73
2022-12-16T15:32:19.648Z,94.11
2022-12-16T15:35:50.901Z,94.42
2022-12-16T15:39:11.770Z,94.88
2022-12-16T15:42:39.272Z,95.12
2022-12-16T15:46:07.678Z,96.01
2022-12-16T15:49:37.831Z,96.07
2022-12-16T15:53:01.169Z,96.10
2022-12-16T15:56:22.117Z,95.28
2022-12-16T15:59:45.649Z,97.54
2022-12-16T16:03:08.330Z,97.20
2022-12-16T16:06:37.096Z,97.80
2022-12-16T16:09:58.636Z,98.89
2022-12-16T16:13:19.691Z,99.23
2022-12-16T16:16:40.778Z,98.19
2022-12-16T16:20:03.934Z,99.69
2022-12-16T16:23:25.231Z,100.00
2022-12-16T16:26:46.815Z,100.00
2022-12-16T16:30:07.669Z,100.00
2022-12-16T16:33:43.249Z,100.00
2022-12-16T16:37:08.336Z,100.00
2022-12-16T16:40:36.902Z,100.00
2022-12-16T16:43:57.918Z,100.00
2022-12-16T16:47:20.004Z,100.00
2022-12-16T16:50:41.159Z,100.00
2022-12-16T16:54:04.639Z,100.00
2022-12-16T16:57:29.078Z,100.00
2022-12-16T17:00:50.431Z,100.00
2022-12-16T17:04:11.912Z,100.00
2022-12-16T17:07:33.199Z,100.00
2022-12-16T17:10:56.204Z,100.00
2022-12-16T17:14:17.236Z,100.00
2022-12-16T17:17:38.310Z,100.00
2022-12-16T17:20:59.247Z,100.00
2022-12-16T17:24:20.286Z,100.00
2022-12-16T17:27:44.556Z,100.00
2022-12-16T17:31:05.628Z,100.00
2022-12-16T17:34:26.765Z,100.00
2022-12-16T17:37:47.837Z,100.00
2022-12-16T17:41:11.217Z,100.00
2022-12-16T17:44:34.448Z,100.00
2022-12-16T17:47:51.939Z,100.00
2022-12-16T17:51:13.095Z,100.00
2022-12-16T17:54:34.355Z,100.00
2022-12-16T17:57:55.397Z,100.00
2022-12-16T18:01:20.770Z,100.00
2022-12-16T18:04:41.688Z,100.00
2022-12-16T18:08:02.667Z,100.00
2022-12-16T18:11:24.249Z,100.00
2022-12-16T18:14:45.316Z,100.00
2022-12-16T18:18:08.577Z,100.00
2022-12-16T18:21:30.490Z,100.00
2022-12-16T18:24:53.685Z,100.00
2022-12-16T18:28:14.535Z,100.00
2022-12-16T18:31:35.696Z,100.00
2022-12-16T18:34:57.955Z,100.00
2022-12-16T18:38:18.671Z,100.00
2022-12-16T18:41:41.301Z,100.00
2022-12-16T18:45:02.435Z,100.00
2022-12-16T18:48:24.095Z,100.00
2022-12-16T18:51:46.369Z,100.00
2022-12-16T18:55:07.670Z,100.00
2022-12-16T18:58:50.231Z,100.00
2022-12-16T19:02:10.463Z,100.00
2022-12-16T19:05:32.100Z,100.00
2022-12-16T19:08:54.880Z,100.00
2022-12-16T19:12:17.044Z,100.00
2022-12-16T19:15:41.412Z,100.00
2022-12-16T19:19:02.964Z,100.00
2022-12-16T19:22:24.293Z,100.00
2022-12-16T19:25:47.179Z,100.00
2022-12-16T19:29:08.153Z,100.00
2022-12-16T19:32:30.375Z,100.00
2022-12-16T19:35:53.735Z,100.00
2022-12-16T19:39:15.022Z,100.00
2022-12-16T19:42:48.634Z,100.00
2022-12-16T19:46:13.188Z,100.00
2022-12-16T19:49:36.298Z,100.00
2022-12-16T19:53:00.619Z,100.00
2022-12-16T19:56:21.774Z,100.00
2022-12-16T19:59:44.694Z,100.00
2022-12-16T20:03:05.902Z,100.00
2022-12-16T20:06:28.177Z,100.00
2022-12-16T20:09:49.516Z,100.00
2022-12-16T20:13:07.019Z,100.00
2022-12-16T20:16:30.475Z,100.00
2022-12-16T20:19:51.579Z,100.00
2022-12-16T20:23:14.685Z,100.00
2022-12-16T20:26:36.112Z,100.00
2022-12-16T20:29:57.226Z,100.00
2022-12-16T20:33:19.377Z,100.00
2022-12-16T20:36:40.433Z,100.00
2022-12-16T20:40:01.701Z,100.00
2022-12-16T20:43:23.154Z,100.00
2022-12-16T20:46:45.889Z,100.00
2022-12-16T20:50:08.519Z,100.00
2022-12-16T20:53:30.092Z,100.00
2022-12-16T20:56:51.033Z,100.00
2022-12-16T21:00:14.194Z,100.00
2022-12-16T21:03:35.360Z,100.00
2022-12-16T21:07:06.614Z,100.00
2022-12-16T21:10:28.360Z,100.00
2022-12-16T21:13:49.828Z,100.00
2022-12-16T21:17:16.505Z,100.00
2022-12-16T21:20:37.256Z,100.00
2022-12-16T21:23:59.921Z,100.00
2022-12-16T21:27:20.797Z,100.00
2022-12-16T21:30:41.846Z,100.00
2022-12-16T21:34:02.878Z,100.00
2022-12-16T21:37:23.889Z,100.00
2022-12-16T21:40:46.209Z,100.00
2022-12-16T21:44:09.441Z,100.00
2022-12-16T21:47:30.696Z,100.00
2022-12-16T21:50:51.769Z,100.00
2022-12-16T21:54:12.845Z,100.00
2022-12-16T21:57:35.596Z,100.00
2022-12-16T22:01:00.613Z,100.00
2022-12-16T22:04:21.873Z,100.00
2022-12-16T22:07:43.015Z,100.00
2022-12-16T22:11:03.305Z,100.00
2022-12-16T22:14:26.125Z,100.00
2022-12-16T22:17:47.249Z,100.00
2022-12-16T22:21:15.877Z,100.00
2022-12-16T22:24:36.889Z,100.00
2022-12-16T22:27:57.894Z,100.00
2022-12-16T22:31:20.602Z,100.00
2022-12-16T22:34:41.708Z,100.00
2022-12-16T22:38:02.901Z,100.00
2022-12-16T22:41:24.156Z,100.00
2022-12-16T22:44:45.505Z,100.00
2022-12-16T22:48:07.557Z,100.00
2022-12-16T22:51:32.399Z,100.00
2022-12-16T22:54:53.412Z,100.00
2022-12-16T22:58:14.379Z,100.00
2022-12-16T23:01:43.553Z,100.00
2022-12-16T23:05:06.562Z,100.00
2022-12-16T23:08:27.850Z,100.00
2022-12-16T23:11:53.321Z,100.00
2022-12-16T23:15:18.028Z,100.00
2022-12-16T23:18:39.160Z,100.00
2022-12-16T23:22:01.971Z,100.00
2022-12-16T23:25:23.482Z,100.00
2022-12-16T23:28:55.142Z,100.00
2022-12-16T23:32:18.005Z,100.00
2022-12-16T23:35:39.011Z,100.00
2022-12-16T23:39:02.098Z,100.00
2022-12-16T23:42:23.580Z,100.00
2022-12-16T23:45:44.729Z,100.00
2022-12-16T23:49:06.988Z,100.00
2022-12-16T23:52:28.132Z,100.00
2022-12-16T23:55:50.334Z,100.00
2022-12-16T23:59:11.700Z,100.00
